Port Alexander, AK

8:53 AM AKDT on September 21, 2014 (GMT -0800)
Kake | Change Station
CLOSE
Current Station
Airport
Location: Kake,
Elevation: 171 ft
Nearby Weather Stations

Elev 171 ft 56.96 °N, 133.91 °W | Updated 17 minutes ago

Scattered Clouds
Scattered Clouds
61 °F
Feels Like 61 °F
N
9
Wind Variable Wind from ESE

Today
High -- | Low -- °F
--% Chance of Precip.
Yesterday
High -- | Low -- °F
Precip. -- in
6:42 AM 6:59 PM
Waning Crescent, 6% visible
Pressure 29.49 in
Visibility 10.0 miles
Clouds Few 3200 ft
Scattered Clouds 4100 ft
Dew Point 57 °F
Humidity 88%
Rainfall 2.57 in
Snow Depth 0 in , 0 in , 0 in
UV 1 out of 12
Pollen Not available.
Air Quality Not available.
Flu Activity Not available.
METAR PAFE 211636Z AUTO 11008KT 10SM FEW032 SCT041 16/14 A2949 RMK AO1 P0003

More Conditions Fewer Conditions

Pressure 29.49 in
Visibility 10.0 miles
Clouds Few 3200 ft
Scattered Clouds 4100 ft
Dew Point 57 °F
Humidity 88%
Rainfall 2.57 in
Snow Depth 0 in , 0 in , 0 in
UV 1 out of 12
Pollen Not available.
Air Quality Not available.
Flu Activity Not available.
METAR PAFE 211636Z AUTO 11008KT 10SM FEW032 SCT041 16/14 A2949 RMK AO1 P0003

More Conditions Fewer Conditions

10-Day Weather Forecast

Almanac

Astronomy

Sep. 21, 2014 Rise Set
Actual Time 6:42 AM AKDT 6:59 PM AKDT
Civil Twilight 6:04 AM AKDT 7:37 PM AKDT
Nautical Twilight 5:19 AM AKDT 8:21 PM AKDT
Astronomical Twilight 4:32 AM AKDT 9:09 PM AKDT
Moon 4:02 AM AKDT 5:54 PM AKDT
Length of Visible Light 13h 32m
Length of Day
12h 17m
Tomorrow will be 4m 40s shorter.
Waning Crescent, 6% of the Moon is Illuminated
Today
Waning Crescent
Sep 24
New
Oct 1
First Quarter
Oct 8
Full
Oct 15
Last Quarter

Today's Extremes

State Highs State Lows

Community

WunderPhotos

Upload Photos

1,755,186 photos uploaded!

Nearby

Snow Depth

Station Depth Elevation
Grouse Creek Divide 0 in 700 ft
Upper Tsaina River 0 in 1750 ft
Long Lake 0 in 820 ft
Cooper Lake 7 in 1200 ft
Turnagain Pass 2 in 1880 ft

Earthquake Activity

City Distance Mag. Time & Date
No recent earthquake activity has been reported nearby.
Minimum magnitude displayed is 2.5.

Coastal Water Temperatures

Place Temperature
No Stations Reporting

Nearby Weather Stations